sensor_id;sensor_type;location;lat;lon;timestamp;P1;durP1;ratioP1;P2;durP2;ratioP2
42098;SDS011;27758;55.900;8.516;2023-01-23T00:00:35;13.88;;;8.43;;
42098;SDS011;27758;55.900;8.516;2023-01-23T00:03:02;15.63;;;9.27;;
42098;SDS011;27758;55.900;8.516;2023-01-23T00:05:28;15.20;;;9.82;;
42098;SDS011;27758;55.900;8.516;2023-01-23T00:07:54;13.38;;;8.77;;
42098;SDS011;27758;55.900;8.516;2023-01-23T00:10:20;13.23;;;9.20;;
42098;SDS011;27758;55.900;8.516;2023-01-23T00:12:46;14.25;;;9.25;;
42098;SDS011;27758;55.900;8.516;2023-01-23T00:15:13;12.85;;;8.55;;
42098;SDS011;27758;55.900;8.516;2023-01-23T00:17:40;14.60;;;10.10;;
42098;SDS011;27758;55.900;8.516;2023-01-23T00:20:07;15.15;;;9.02;;
42098;SDS011;27758;55.900;8.516;2023-01-23T00:22:34;15.50;;;8.45;;
42098;SDS011;27758;55.900;8.516;2023-01-23T00:25:00;14.45;;;8.73;;
42098;SDS011;27758;55.900;8.516;2023-01-23T00:27:26;11.90;;;8.70;;
42098;SDS011;27758;55.900;8.516;2023-01-23T00:29:52;11.40;;;7.63;;
42098;SDS011;27758;55.900;8.516;2023-01-23T00:32:17;13.57;;;8.02;;
42098;SDS011;27758;55.900;8.516;2023-01-23T00:34:44;12.35;;;8.73;;
42098;SDS011;27758;55.900;8.516;2023-01-23T00:37:11;13.80;;;8.60;;
42098;SDS011;27758;55.900;8.516;2023-01-23T00:39:36;14.65;;;8.57;;
42098;SDS011;27758;55.900;8.516;2023-01-23T00:42:02;13.45;;;8.32;;
42098;SDS011;27758;55.900;8.516;2023-01-23T00:44:28;11.48;;;7.07;;
42098;SDS011;27758;55.900;8.516;2023-01-23T00:46:55;13.52;;;7.75;;
42098;SDS011;27758;55.900;8.516;2023-01-23T00:49:21;14.48;;;8.65;;
42098;SDS011;27758;55.900;8.516;2023-01-23T00:51:47;12.82;;;7.95;;
42098;SDS011;27758;55.900;8.516;2023-01-23T00:54:14;10.50;;;6.88;;
42098;SDS011;27758;55.900;8.516;2023-01-23T00:56:41;12.05;;;8.20;;
42098;SDS011;27758;55.900;8.516;2023-01-23T00:59:07;12.40;;;7.38;;
42098;SDS011;27758;55.900;8.516;2023-01-23T01:01:33;11.63;;;7.63;;
42098;SDS011;27758;55.900;8.516;2023-01-23T01:03:59;11.90;;;7.82;;
42098;SDS011;27758;55.900;8.516;2023-01-23T01:06:25;12.30;;;8.32;;
42098;SDS011;27758;55.900;8.516;2023-01-23T01:08:52;12.32;;;8.30;;
42098;SDS011;27758;55.900;8.516;2023-01-23T01:11:18;12.88;;;9.18;;
42098;SDS011;27758;55.900;8.516;2023-01-23T01:13:44;11.32;;;7.82;;
42098;SDS011;27758;55.900;8.516;2023-01-23T01:16:10;11.27;;;7.65;;
42098;SDS011;27758;55.900;8.516;2023-01-23T01:18:36;11.35;;;7.43;;
42098;SDS011;27758;55.900;8.516;2023-01-23T01:21:06;11.88;;;7.57;;
42098;SDS011;27758;55.900;8.516;2023-01-23T01:23:33;11.60;;;7.85;;
42098;SDS011;27758;55.900;8.516;2023-01-23T01:26:00;12.02;;;7.40;;
42098;SDS011;27758;55.900;8.516;2023-01-23T01:28:26;11.13;;;7.82;;
42098;SDS011;27758;55.900;8.516;2023-01-23T01:30:54;11.95;;;7.95;;
42098;SDS011;27758;55.900;8.516;2023-01-23T01:33:27;11.18;;;7.82;;
42098;SDS011;27758;55.900;8.516;2023-01-23T01:35:53;10.38;;;7.18;;
42098;SDS011;27758;55.900;8.516;2023-01-23T01:38:21;11.73;;;7.75;;
42098;SDS011;27758;55.900;8.516;2023-01-23T01:40:47;14.18;;;8.65;;
42098;SDS011;27758;55.900;8.516;2023-01-23T01:43:17;13.48;;;8.23;;
42098;SDS011;27758;55.900;8.516;2023-01-23T01:45:56;12.30;;;8.82;;
42098;SDS011;27758;55.900;8.516;2023-01-23T01:48:41;11.07;;;7.55;;
42098;SDS011;27758;55.900;8.516;2023-01-23T01:56:29;12.65;;;8.18;;
42098;SDS011;27758;55.900;8.516;2023-01-23T01:59:01;11.18;;;7.20;;
42098;SDS011;27758;55.900;8.516;2023-01-23T02:01:28;11.77;;;7.40;;
42098;SDS011;27758;55.900;8.516;2023-01-23T02:03:54;11.07;;;7.10;;
42098;SDS011;27758;55.900;8.516;2023-01-23T02:06:21;11.70;;;7.00;;
42098;SDS011;27758;55.900;8.516;2023-01-23T02:09:33;9.20;;;6.90;;
42098;SDS011;27758;55.900;8.516;2023-01-23T02:11:36;11.20;;;6.72;;
42098;SDS011;27758;55.900;8.516;2023-01-23T02:14:02;11.82;;;6.85;;
42098;SDS011;27758;55.900;8.516;2023-01-23T02:16:29;10.73;;;6.72;;
42098;SDS011;27758;55.900;8.516;2023-01-23T02:19:05;11.43;;;7.53;;
42098;SDS011;27758;55.900;8.516;2023-01-23T02:21:42;12.23;;;7.45;;
42098;SDS011;27758;55.900;8.516;2023-01-23T02:24:15;11.93;;;7.55;;
42098;SDS011;27758;55.900;8.516;2023-01-23T02:26:47;9.75;;;6.72;;
42098;SDS011;27758;55.900;8.516;2023-01-23T02:29:13;10.07;;;6.78;;
42098;SDS011;27758;55.900;8.516;2023-01-23T02:31:40;11.77;;;7.20;;
42098;SDS011;27758;55.900;8.516;2023-01-23T02:34:09;9.75;;;6.82;;
42098;SDS011;27758;55.900;8.516;2023-01-23T02:36:36;10.23;;;6.85;;
42098;SDS011;27758;55.900;8.516;2023-01-23T02:39:09;10.98;;;6.55;;
42098;SDS011;27758;55.900;8.516;2023-01-23T02:41:58;10.48;;;6.97;;
42098;SDS011;27758;55.900;8.516;2023-01-23T02:44:24;11.15;;;7.40;;
42098;SDS011;27758;55.900;8.516;2023-01-23T02:46:52;8.65;;;5.68;;
42098;SDS011;27758;55.900;8.516;2023-01-23T02:49:19;10.43;;;6.72;;
42098;SDS011;27758;55.900;8.516;2023-01-23T02:51:46;10.95;;;6.63;;
42098;SDS011;27758;55.900;8.516;2023-01-23T02:54:13;10.30;;;5.53;;
42098;SDS011;27758;55.900;8.516;2023-01-23T02:56:39;9.98;;;5.93;;
42098;SDS011;27758;55.900;8.516;2023-01-23T02:59:06;11.20;;;6.47;;
42098;SDS011;27758;55.900;8.516;2023-01-23T03:01:51;9.18;;;6.35;;
42098;SDS011;27758;55.900;8.516;2023-01-23T03:04:17;10.40;;;6.90;;
42098;SDS011;27758;55.900;8.516;2023-01-23T03:06:42;9.35;;;6.05;;
42098;SDS011;27758;55.900;8.516;2023-01-23T03:09:09;9.52;;;6.18;;
42098;SDS011;27758;55.900;8.516;2023-01-23T03:11:37;9.98;;;6.18;;
42098;SDS011;27758;55.900;8.516;2023-01-23T03:14:14;9.52;;;6.10;;
42098;SDS011;27758;55.900;8.516;2023-01-23T03:16:42;10.10;;;6.18;;
42098;SDS011;27758;55.900;8.516;2023-01-23T03:19:10;10.68;;;7.05;;
42098;SDS011;27758;55.900;8.516;2023-01-23T03:21:37;11.13;;;6.18;;
42098;SDS011;27758;55.900;8.516;2023-01-23T03:24:08;10.13;;;6.18;;
42098;SDS011;27758;55.900;8.516;2023-01-23T03:26:38;11.23;;;6.47;;
42098;SDS011;27758;55.900;8.516;2023-01-23T03:29:04;10.85;;;6.55;;
42098;SDS011;27758;55.900;8.516;2023-01-23T03:31:49;9.27;;;6.50;;
42098;SDS011;27758;55.900;8.516;2023-01-23T03:34:15;11.00;;;6.90;;
42098;SDS011;27758;55.900;8.516;2023-01-23T03:36:42;10.43;;;6.68;;
42098;SDS011;27758;55.900;8.516;2023-01-23T03:39:08;11.77;;;6.95;;
42098;SDS011;27758;55.900;8.516;2023-01-23T03:41:52;10.30;;;7.07;;
42098;SDS011;27758;55.900;8.516;2023-01-23T03:44:18;8.77;;;5.88;;
42098;SDS011;27758;55.900;8.516;2023-01-23T03:46:45;10.93;;;6.25;;
42098;SDS011;27758;55.900;8.516;2023-01-23T03:49:12;11.95;;;7.00;;
42098;SDS011;27758;55.900;8.516;2023-01-23T03:51:39;8.52;;;6.45;;
42098;SDS011;27758;55.900;8.516;2023-01-23T03:54:04;9.98;;;6.30;;
42098;SDS011;27758;55.900;8.516;2023-01-23T03:56:30;10.70;;;6.70;;
42098;SDS011;27758;55.900;8.516;2023-01-23T03:58:56;8.95;;;6.05;;
42098;SDS011;27758;55.900;8.516;2023-01-23T04:01:23;10.90;;;6.80;;
42098;SDS011;27758;55.900;8.516;2023-01-23T04:03:49;9.90;;;6.55;;
42098;SDS011;27758;55.900;8.516;2023-01-23T04:06:14;9.35;;;6.88;;
42098;SDS011;27758;55.900;8.516;2023-01-23T04:08:40;11.68;;;7.40;;
42098;SDS011;27758;55.900;8.516;2023-01-23T04:11:07;11.63;;;6.30;;
42098;SDS011;27758;55.900;8.516;2023-01-23T04:13:34;9.05;;;6.05;;
42098;SDS011;27758;55.900;8.516;2023-01-23T04:16:00;9.98;;;5.78;;
42098;SDS011;27758;55.900;8.516;2023-01-23T04:18:27;11.00;;;6.57;;
42098;SDS011;27758;55.900;8.516;2023-01-23T04:20:53;10.35;;;6.50;;
42098;SDS011;27758;55.900;8.516;2023-01-23T04:23:19;9.48;;;5.90;;
42098;SDS011;27758;55.900;8.516;2023-01-23T04:25:45;9.23;;;6.13;;
42098;SDS011;27758;55.900;8.516;2023-01-23T04:28:11;10.13;;;6.60;;
42098;SDS011;27758;55.900;8.516;2023-01-23T04:30:37;10.75;;;7.15;;
42098;SDS011;27758;55.900;8.516;2023-01-23T04:33:03;10.93;;;6.47;;
42098;SDS011;27758;55.900;8.516;2023-01-23T04:35:29;9.93;;;6.95;;
42098;SDS011;27758;55.900;8.516;2023-01-23T04:37:54;11.32;;;6.50;;
42098;SDS011;27758;55.900;8.516;2023-01-23T04:40:20;11.23;;;7.05;;
42098;SDS011;27758;55.900;8.516;2023-01-23T04:42:46;11.50;;;7.18;;
42098;SDS011;27758;55.900;8.516;2023-01-23T04:45:12;11.98;;;6.60;;
42098;SDS011;27758;55.900;8.516;2023-01-23T04:47:37;9.27;;;6.65;;
42098;SDS011;27758;55.900;8.516;2023-01-23T04:50:03;10.48;;;7.05;;
42098;SDS011;27758;55.900;8.516;2023-01-23T04:52:29;9.93;;;7.15;;
42098;SDS011;27758;55.900;8.516;2023-01-23T04:54:55;12.00;;;8.00;;
42098;SDS011;27758;55.900;8.516;2023-01-23T04:57:21;9.25;;;6.13;;
42098;SDS011;27758;55.900;8.516;2023-01-23T04:59:47;8.68;;;6.18;;
42098;SDS011;27758;55.900;8.516;2023-01-23T05:02:13;9.82;;;6.80;;
42098;SDS011;27758;55.900;8.516;2023-01-23T05:04:39;7.97;;;5.80;;
42098;SDS011;27758;55.900;8.516;2023-01-23T05:07:05;9.00;;;6.78;;
42098;SDS011;27758;55.900;8.516;2023-01-23T05:09:31;9.30;;;6.95;;
42098;SDS011;27758;55.900;8.516;2023-01-23T05:11:56;12.02;;;7.40;;
42098;SDS011;27758;55.900;8.516;2023-01-23T05:14:22;10.43;;;6.90;;
42098;SDS011;27758;55.900;8.516;2023-01-23T05:16:49;9.63;;;6.65;;
42098;SDS011;27758;55.900;8.516;2023-01-23T05:19:15;10.68;;;6.88;;
42098;SDS011;27758;55.900;8.516;2023-01-23T05:21:40;7.53;;;6.15;;
42098;SDS011;27758;55.900;8.516;2023-01-23T05:24:06;9.80;;;6.45;;
42098;SDS011;27758;55.900;8.516;2023-01-23T05:26:34;8.23;;;6.20;;
42098;SDS011;27758;55.900;8.516;2023-01-23T05:29:00;10.48;;;6.50;;
42098;SDS011;27758;55.900;8.516;2023-01-23T05:31:26;10.57;;;6.30;;
42098;SDS011;27758;55.900;8.516;2023-01-23T05:33:52;7.85;;;5.78;;
42098;SDS011;27758;55.900;8.516;2023-01-23T05:36:18;9.07;;;6.30;;
42098;SDS011;27758;55.900;8.516;2023-01-23T05:38:43;8.93;;;5.78;;
42098;SDS011;27758;55.900;8.516;2023-01-23T05:41:09;9.35;;;5.80;;
42098;SDS011;27758;55.900;8.516;2023-01-23T05:43:35;8.20;;;5.80;;
42098;SDS011;27758;55.900;8.516;2023-01-23T05:46:01;9.70;;;6.05;;
42098;SDS011;27758;55.900;8.516;2023-01-23T05:48:27;8.07;;;5.60;;
42098;SDS011;27758;55.900;8.516;2023-01-23T05:50:53;9.02;;;6.10;;
42098;SDS011;27758;55.900;8.516;2023-01-23T05:53:19;8.27;;;6.13;;
42098;SDS011;27758;55.900;8.516;2023-01-23T05:55:44;8.70;;;5.88;;
42098;SDS011;27758;55.900;8.516;2023-01-23T05:58:10;7.88;;;5.80;;
42098;SDS011;27758;55.900;8.516;2023-01-23T06:00:36;9.80;;;5.75;;
42098;SDS011;27758;55.900;8.516;2023-01-23T06:03:02;12.02;;;6.00;;
42098;SDS011;27758;55.900;8.516;2023-01-23T06:05:28;9.85;;;6.15;;
42098;SDS011;27758;55.900;8.516;2023-01-23T06:07:54;10.02;;;6.22;;
42098;SDS011;27758;55.900;8.516;2023-01-23T06:10:19;10.52;;;6.32;;
42098;SDS011;27758;55.900;8.516;2023-01-23T06:12:45;14.35;;;6.57;;
42098;SDS011;27758;55.900;8.516;2023-01-23T06:15:11;9.48;;;6.03;;
42098;SDS011;27758;55.900;8.516;2023-01-23T06:17:36;9.38;;;5.80;;
42098;SDS011;27758;55.900;8.516;2023-01-23T06:20:02;9.45;;;6.45;;
42098;SDS011;27758;55.900;8.516;2023-01-23T06:22:29;8.95;;;6.15;;
42098;SDS011;27758;55.900;8.516;2023-01-23T06:24:54;8.60;;;6.25;;
42098;SDS011;27758;55.900;8.516;2023-01-23T06:27:20;13.63;;;6.63;;
42098;SDS011;27758;55.900;8.516;2023-01-23T06:29:46;9.95;;;6.75;;
42098;SDS011;27758;55.900;8.516;2023-01-23T06:32:11;9.93;;;7.07;;
42098;SDS011;27758;55.900;8.516;2023-01-23T06:34:37;10.80;;;6.70;;
42098;SDS011;27758;55.900;8.516;2023-01-23T06:37:03;9.40;;;6.53;;
42098;SDS011;27758;55.900;8.516;2023-01-23T06:39:29;11.45;;;6.68;;
42098;SDS011;27758;55.900;8.516;2023-01-23T06:41:55;10.48;;;7.47;;
42098;SDS011;27758;55.900;8.516;2023-01-23T06:44:22;11.40;;;7.60;;
42098;SDS011;27758;55.900;8.516;2023-01-23T06:46:51;10.20;;;7.22;;
42098;SDS011;27758;55.900;8.516;2023-01-23T06:49:17;12.68;;;7.82;;
42098;SDS011;27758;55.900;8.516;2023-01-23T06:51:43;10.35;;;8.02;;
42098;SDS011;27758;55.900;8.516;2023-01-23T06:54:09;11.13;;;7.72;;
42098;SDS011;27758;55.900;8.516;2023-01-23T06:56:34;10.63;;;8.25;;
42098;SDS011;27758;55.900;8.516;2023-01-23T06:59:00;12.13;;;7.95;;
42098;SDS011;27758;55.900;8.516;2023-01-23T07:01:26;12.60;;;8.02;;
42098;SDS011;27758;55.900;8.516;2023-01-23T07:03:53;13.75;;;8.52;;
42098;SDS011;27758;55.900;8.516;2023-01-23T07:06:18;11.52;;;8.25;;
42098;SDS011;27758;55.900;8.516;2023-01-23T07:08:44;12.77;;;8.77;;
42098;SDS011;27758;55.900;8.516;2023-01-23T07:11:10;10.65;;;8.00;;
42098;SDS011;27758;55.900;8.516;2023-01-23T07:13:36;11.25;;;7.78;;
42098;SDS011;27758;55.900;8.516;2023-01-23T07:16:02;11.70;;;8.05;;
42098;SDS011;27758;55.900;8.516;2023-01-23T07:18:28;13.18;;;8.02;;
42098;SDS011;27758;55.900;8.516;2023-01-23T07:20:54;12.60;;;8.45;;
42098;SDS011;27758;55.900;8.516;2023-01-23T07:23:20;13.65;;;9.10;;
42098;SDS011;27758;55.900;8.516;2023-01-23T07:25:46;12.70;;;9.65;;
42098;SDS011;27758;55.900;8.516;2023-01-23T07:28:12;19.38;;;11.93;;
42098;SDS011;27758;55.900;8.516;2023-01-23T07:30:37;31.95;;;17.92;;
42098;SDS011;27758;55.900;8.516;2023-01-23T07:33:03;41.42;;;21.58;;
42098;SDS011;27758;55.900;8.516;2023-01-23T07:35:29;24.15;;;13.60;;
42098;SDS011;27758;55.900;8.516;2023-01-23T07:37:55;17.10;;;10.68;;
42098;SDS011;27758;55.900;8.516;2023-01-23T07:40:21;15.95;;;9.48;;
42098;SDS011;27758;55.900;8.516;2023-01-23T07:42:48;12.48;;;8.32;;
42098;SDS011;27758;55.900;8.516;2023-01-23T07:45:13;14.10;;;8.40;;
42098;SDS011;27758;55.900;8.516;2023-01-23T07:47:39;12.90;;;8.50;;
42098;SDS011;27758;55.900;8.516;2023-01-23T07:50:06;14.50;;;9.35;;
42098;SDS011;27758;55.900;8.516;2023-01-23T07:52:34;12.93;;;7.97;;
42098;SDS011;27758;55.900;8.516;2023-01-23T07:55:00;12.68;;;8.82;;
42098;SDS011;27758;55.900;8.516;2023-01-23T07:57:26;14.20;;;8.35;;
42098;SDS011;27758;55.900;8.516;2023-01-23T07:59:52;10.02;;;7.68;;
42098;SDS011;27758;55.900;8.516;2023-01-23T08:02:17;12.18;;;8.52;;
42098;SDS011;27758;55.900;8.516;2023-01-23T08:04:43;13.45;;;7.85;;
42098;SDS011;27758;55.900;8.516;2023-01-23T08:07:09;9.43;;;7.63;;
42098;SDS011;27758;55.900;8.516;2023-01-23T08:09:34;11.15;;;7.35;;
42098;SDS011;27758;55.900;8.516;2023-01-23T08:12:00;12.63;;;8.18;;
42098;SDS011;27758;55.900;8.516;2023-01-23T08:14:26;11.30;;;7.82;;
42098;SDS011;27758;55.900;8.516;2023-01-23T08:16:52;11.55;;;8.07;;
42098;SDS011;27758;55.900;8.516;2023-01-23T08:19:18;13.07;;;7.72;;
42098;SDS011;27758;55.900;8.516;2023-01-23T08:21:44;16.05;;;7.70;;
42098;SDS011;27758;55.900;8.516;2023-01-23T08:24:11;11.02;;;7.85;;
42098;SDS011;27758;55.900;8.516;2023-01-23T08:26:37;22.25;;;8.20;;
42098;SDS011;27758;55.900;8.516;2023-01-23T08:29:03;11.25;;;8.02;;
42098;SDS011;27758;55.900;8.516;2023-01-23T08:31:29;12.65;;;8.75;;
42098;SDS011;27758;55.900;8.516;2023-01-23T08:33:55;14.77;;;8.05;;
42098;SDS011;27758;55.900;8.516;2023-01-23T08:36:21;17.38;;;7.80;;
42098;SDS011;27758;55.900;8.516;2023-01-23T08:38:47;11.65;;;8.40;;
42098;SDS011;27758;55.900;8.516;2023-01-23T08:41:12;12.43;;;6.80;;
42098;SDS011;27758;55.900;8.516;2023-01-23T08:43:39;11.45;;;6.43;;
42098;SDS011;27758;55.900;8.516;2023-01-23T08:46:06;9.38;;;6.13;;
42098;SDS011;27758;55.900;8.516;2023-01-23T08:48:32;14.60;;;7.13;;
42098;SDS011;27758;55.900;8.516;2023-01-23T08:51:03;10.13;;;6.72;;
42098;SDS011;27758;55.900;8.516;2023-01-23T08:53:31;8.77;;;5.78;;
42098;SDS011;27758;55.900;8.516;2023-01-23T08:55:58;8.35;;;6.53;;
42098;SDS011;27758;55.900;8.516;2023-01-23T08:58:25;11.40;;;6.47;;
42098;SDS011;27758;55.900;8.516;2023-01-23T09:00:51;13.27;;;6.38;;
42098;SDS011;27758;55.900;8.516;2023-01-23T09:03:16;9.15;;;5.65;;
42098;SDS011;27758;55.900;8.516;2023-01-23T09:05:42;8.55;;;5.70;;
42098;SDS011;27758;55.900;8.516;2023-01-23T09:08:08;12.13;;;5.78;;
42098;SDS011;27758;55.900;8.516;2023-01-23T09:10:34;8.45;;;5.07;;
42098;SDS011;27758;55.900;8.516;2023-01-23T09:13:00;8.70;;;4.93;;
42098;SDS011;27758;55.900;8.516;2023-01-23T09:15:26;7.15;;;4.47;;
42098;SDS011;27758;55.900;8.516;2023-01-23T09:17:52;7.18;;;4.47;;
42098;SDS011;27758;55.900;8.516;2023-01-23T09:20:18;6.95;;;3.97;;
42098;SDS011;27758;55.900;8.516;2023-01-23T09:22:44;6.32;;;4.40;;
42098;SDS011;27758;55.900;8.516;2023-01-23T09:25:10;5.72;;;4.28;;
42098;SDS011;27758;55.900;8.516;2023-01-23T09:27:36;6.85;;;3.78;;
42098;SDS011;27758;55.900;8.516;2023-01-23T09:30:02;6.55;;;4.82;;
42098;SDS011;27758;55.900;8.516;2023-01-23T09:32:28;7.30;;;4.88;;
42098;SDS011;27758;55.900;8.516;2023-01-23T09:34:53;7.50;;;4.35;;
42098;SDS011;27758;55.900;8.516;2023-01-23T09:37:19;7.00;;;4.68;;
42098;SDS011;27758;55.900;8.516;2023-01-23T09:39:45;6.55;;;4.70;;
42098;SDS011;27758;55.900;8.516;2023-01-23T09:42:18;6.95;;;4.22;;
42098;SDS011;27758;55.900;8.516;2023-01-23T09:44:51;8.88;;;4.47;;
42098;SDS011;27758;55.900;8.516;2023-01-23T09:47:26;5.78;;;4.47;;
42098;SDS011;27758;55.900;8.516;2023-01-23T09:49:59;7.55;;;4.82;;
42098;SDS011;27758;55.900;8.516;2023-01-23T09:52:30;9.23;;;3.75;;
42098;SDS011;27758;55.900;8.516;2023-01-23T09:57:56;10.93;;;5.95;;
42098;SDS011;27758;55.900;8.516;2023-01-23T10:00:27;11.15;;;5.65;;
42098;SDS011;27758;55.900;8.516;2023-01-23T10:02:56;9.65;;;6.80;;
42098;SDS011;27758;55.900;8.516;2023-01-23T10:05:25;5.15;;;3.70;;
42098;SDS011;27758;55.900;8.516;2023-01-23T10:21:59;7.00;;;3.58;;
42098;SDS011;27758;55.900;8.516;2023-01-23T10:27:15;8.05;;;3.60;;
42098;SDS011;27758;55.900;8.516;2023-01-23T10:29:49;7.90;;;4.03;;
42098;SDS011;27758;55.900;8.516;2023-01-23T10:32:25;4.13;;;3.45;;
42098;SDS011;27758;55.900;8.516;2023-01-23T10:34:56;5.20;;;3.50;;
42098;SDS011;27758;55.900;8.516;2023-01-23T10:40:13;6.60;;;3.38;;
42098;SDS011;27758;55.900;8.516;2023-01-23T10:43:13;5.97;;;3.45;;
42098;SDS011;27758;55.900;8.516;2023-01-23T10:45:41;5.57;;;3.10;;
42098;SDS011;27758;55.900;8.516;2023-01-23T10:56:34;5.55;;;3.67;;
42098;SDS011;27758;55.900;8.516;2023-01-23T10:59:03;7.13;;;3.97;;
42098;SDS011;27758;55.900;8.516;2023-01-23T11:01:33;7.75;;;4.70;;
42098;SDS011;27758;55.900;8.516;2023-01-23T11:04:10;7.82;;;5.60;;
42098;SDS011;27758;55.900;8.516;2023-01-23T11:06:42;13.82;;;8.30;;
42098;SDS011;27758;55.900;8.516;2023-01-23T11:09:18;10.43;;;6.28;;
42098;SDS011;27758;55.900;8.516;2023-01-23T11:11:52;8.40;;;5.13;;
42098;SDS011;27758;55.900;8.516;2023-01-23T11:14:38;9.68;;;5.10;;
42098;SDS011;27758;55.900;8.516;2023-01-23T11:17:23;6.93;;;4.75;;
42098;SDS011;27758;55.900;8.516;2023-01-23T11:19:56;7.45;;;5.10;;
42098;SDS011;27758;55.900;8.516;2023-01-23T11:22:33;8.55;;;5.15;;
42098;SDS011;27758;55.900;8.516;2023-01-23T11:27:56;10.40;;;6.30;;
42098;SDS011;27758;55.900;8.516;2023-01-23T11:31:10;7.80;;;4.97;;
42098;SDS011;27758;55.900;8.516;2023-01-23T11:35:51;9.75;;;4.65;;
42098;SDS011;27758;55.900;8.516;2023-01-23T11:38:25;6.97;;;4.75;;
42098;SDS011;27758;55.900;8.516;2023-01-23T11:40:55;11.57;;;5.13;;
42098;SDS011;27758;55.900;8.516;2023-01-23T11:43:21;7.80;;;5.03;;
42098;SDS011;27758;55.900;8.516;2023-01-23T11:46:01;9.63;;;5.20;;
42098;SDS011;27758;55.900;8.516;2023-01-23T12:00:26;7.60;;;4.05;;
42098;SDS011;27758;55.900;8.516;2023-01-23T12:05:43;7.32;;;4.28;;
42098;SDS011;27758;55.900;8.516;2023-01-23T12:08:45;8.38;;;4.28;;
42098;SDS011;27758;55.900;8.516;2023-01-23T12:11:48;7.18;;;3.63;;
42098;SDS011;27758;55.900;8.516;2023-01-23T12:25:28;6.43;;;3.88;;
42098;SDS011;27758;55.900;8.516;2023-01-23T12:28:03;7.72;;;3.90;;
42098;SDS011;27758;55.900;8.516;2023-01-23T12:30:38;5.82;;;3.80;;
42098;SDS011;27758;55.900;8.516;2023-01-23T12:41:28;8.52;;;3.63;;
42098;SDS011;27758;55.900;8.516;2023-01-23T12:44:00;6.80;;;3.60;;
42098;SDS011;27758;55.900;8.516;2023-01-23T12:52:00;7.75;;;4.10;;
42098;SDS011;27758;55.900;8.516;2023-01-23T12:54:32;7.18;;;4.03;;
42098;SDS011;27758;55.900;8.516;2023-01-23T12:57:04;5.75;;;3.70;;
42098;SDS011;27758;55.900;8.516;2023-01-23T13:10:23;8.25;;;4.28;;
42098;SDS011;27758;55.900;8.516;2023-01-23T13:13:16;7.03;;;4.22;;
42098;SDS011;27758;55.900;8.516;2023-01-23T13:15:43;6.28;;;3.72;;
42098;SDS011;27758;55.900;8.516;2023-01-23T13:18:24;7.63;;;4.20;;
42098;SDS011;27758;55.900;8.516;2023-01-23T13:20:55;7.65;;;4.13;;
42098;SDS011;27758;55.900;8.516;2023-01-23T13:23:41;5.20;;;3.40;;
42098;SDS011;27758;55.900;8.516;2023-01-23T13:31:42;9.07;;;4.90;;
42098;SDS011;27758;55.900;8.516;2023-01-23T13:36:42;7.53;;;4.22;;
42098;SDS011;27758;55.900;8.516;2023-01-23T13:41:41;7.68;;;4.53;;
42098;SDS011;27758;55.900;8.516;2023-01-23T13:44:24;7.20;;;4.30;;
42098;SDS011;27758;55.900;8.516;2023-01-23T13:50:03;9.35;;;4.35;;
42098;SDS011;27758;55.900;8.516;2023-01-23T13:52:40;6.30;;;3.72;;
42098;SDS011;27758;55.900;8.516;2023-01-23T13:55:31;11.52;;;4.50;;
42098;SDS011;27758;55.900;8.516;2023-01-23T13:58:22;7.53;;;4.35;;
42098;SDS011;27758;55.900;8.516;2023-01-23T14:00:50;7.32;;;4.30;;
42098;SDS011;27758;55.900;8.516;2023-01-23T14:03:37;7.40;;;4.60;;
42098;SDS011;27758;55.900;8.516;2023-01-23T14:06:31;7.18;;;3.97;;
42098;SDS011;27758;55.900;8.516;2023-01-23T14:08:58;7.45;;;4.45;;
42098;SDS011;27758;55.900;8.516;2023-01-23T14:11:29;6.65;;;3.92;;
42098;SDS011;27758;55.900;8.516;2023-01-23T14:14:00;7.65;;;4.32;;
42098;SDS011;27758;55.900;8.516;2023-01-23T14:16:46;8.45;;;4.75;;
42098;SDS011;27758;55.900;8.516;2023-01-23T14:19:23;7.35;;;3.97;;
42098;SDS011;27758;55.900;8.516;2023-01-23T14:21:54;9.77;;;4.50;;
42098;SDS011;27758;55.900;8.516;2023-01-23T14:27:05;6.78;;;4.30;;
42098;SDS011;27758;55.900;8.516;2023-01-23T14:29:33;11.18;;;4.97;;
42098;SDS011;27758;55.900;8.516;2023-01-23T14:31:59;7.78;;;4.32;;
42098;SDS011;27758;55.900;8.516;2023-01-23T14:34:25;6.53;;;3.78;;
42098;SDS011;27758;55.900;8.516;2023-01-23T14:36:53;8.55;;;4.57;;
42098;SDS011;27758;55.900;8.516;2023-01-23T14:41:51;5.88;;;4.10;;
42098;SDS011;27758;55.900;8.516;2023-01-23T14:44:20;6.70;;;4.10;;
42098;SDS011;27758;55.900;8.516;2023-01-23T14:49:17;7.57;;;4.38;;
42098;SDS011;27758;55.900;8.516;2023-01-23T14:52:18;9.18;;;4.65;;
42098;SDS011;27758;55.900;8.516;2023-01-23T14:54:53;6.57;;;4.15;;
42098;SDS011;27758;55.900;8.516;2023-01-23T14:57:24;8.63;;;4.63;;
42098;SDS011;27758;55.900;8.516;2023-01-23T14:59:59;6.75;;;3.90;;
42098;SDS011;27758;55.900;8.516;2023-01-23T15:05:15;14.27;;;7.88;;
42098;SDS011;27758;55.900;8.516;2023-01-23T15:13:10;9.30;;;6.38;;
42098;SDS011;27758;55.900;8.516;2023-01-23T15:15:44;8.57;;;5.63;;
42098;SDS011;27758;55.900;8.516;2023-01-23T15:18:23;10.00;;;5.90;;
42098;SDS011;27758;55.900;8.516;2023-01-23T15:20:54;9.95;;;6.00;;
42098;SDS011;27758;55.900;8.516;2023-01-23T15:28:55;7.85;;;4.82;;
42098;SDS011;27758;55.900;8.516;2023-01-23T15:31:31;8.45;;;5.13;;
42098;SDS011;27758;55.900;8.516;2023-01-23T15:36:52;14.13;;;7.43;;
42098;SDS011;27758;55.900;8.516;2023-01-23T15:42:39;16.52;;;9.43;;
42098;SDS011;27758;55.900;8.516;2023-01-23T15:44:40;15.38;;;9.90;;
42098;SDS011;27758;55.900;8.516;2023-01-23T15:47:06;15.27;;;9.23;;
42098;SDS011;27758;55.900;8.516;2023-01-23T15:49:34;21.63;;;9.43;;
42098;SDS011;27758;55.900;8.516;2023-01-23T15:54:37;15.15;;;8.23;;
42098;SDS011;27758;55.900;8.516;2023-01-23T15:57:04;17.60;;;7.80;;
42098;SDS011;27758;55.900;8.516;2023-01-23T15:59:31;12.82;;;7.47;;
42098;SDS011;27758;55.900;8.516;2023-01-23T16:01:58;11.52;;;6.60;;
42098;SDS011;27758;55.900;8.516;2023-01-23T16:04:23;14.45;;;6.95;;
42098;SDS011;27758;55.900;8.516;2023-01-23T16:06:49;13.13;;;6.75;;
42098;SDS011;27758;55.900;8.516;2023-01-23T16:09:34;12.95;;;7.40;;
42098;SDS011;27758;55.900;8.516;2023-01-23T16:12:02;11.27;;;6.47;;
42098;SDS011;27758;55.900;8.516;2023-01-23T16:14:28;10.40;;;5.90;;
42098;SDS011;27758;55.900;8.516;2023-01-23T16:16:54;10.38;;;6.10;;
42098;SDS011;27758;55.900;8.516;2023-01-23T16:19:20;10.00;;;5.72;;
42098;SDS011;27758;55.900;8.516;2023-01-23T16:21:45;13.10;;;6.25;;
42098;SDS011;27758;55.900;8.516;2023-01-23T16:24:16;8.63;;;5.40;;
42098;SDS011;27758;55.900;8.516;2023-01-23T16:26:44;10.52;;;5.68;;
42098;SDS011;27758;55.900;8.516;2023-01-23T16:29:31;12.00;;;6.00;;
42098;SDS011;27758;55.900;8.516;2023-01-23T16:31:57;17.75;;;6.45;;
42098;SDS011;27758;55.900;8.516;2023-01-23T16:34:25;8.75;;;5.47;;
42098;SDS011;27758;55.900;8.516;2023-01-23T16:36:54;10.02;;;6.00;;
42098;SDS011;27758;55.900;8.516;2023-01-23T16:39:24;8.32;;;5.05;;
42098;SDS011;27758;55.900;8.516;2023-01-23T16:41:51;10.77;;;6.25;;
42098;SDS011;27758;55.900;8.516;2023-01-23T16:44:20;10.32;;;6.50;;
42098;SDS011;27758;55.900;8.516;2023-01-23T16:46:48;10.73;;;5.35;;
42098;SDS011;27758;55.900;8.516;2023-01-23T16:49:15;12.23;;;6.65;;
42098;SDS011;27758;55.900;8.516;2023-01-23T16:51:42;8.77;;;5.63;;
42098;SDS011;27758;55.900;8.516;2023-01-23T16:54:16;12.15;;;6.45;;
42098;SDS011;27758;55.900;8.516;2023-01-23T16:56:44;11.55;;;6.35;;
42098;SDS011;27758;55.900;8.516;2023-01-23T17:01:59;14.88;;;6.90;;
42098;SDS011;27758;55.900;8.516;2023-01-23T17:06:55;14.00;;;8.82;;
42098;SDS011;27758;55.900;8.516;2023-01-23T17:09:20;14.80;;;8.00;;
42098;SDS011;27758;55.900;8.516;2023-01-23T17:11:48;12.57;;;7.60;;